Time;durP1;ratioP1;P1;durP2;ratioP2;P2;SDS_P1;SDS_P2;PMS_P1;PMS_P2;Temp;Humidity;BMP_temperature;BMP_pressure;BME280_temperature;BME280_humidity;BME280_pressure;Samples;Min_cycle;Max_cycle;Signal;HPM_P1;HPM_P2
2021/10/18 00:00:10;;;;;;;10.87;8.47;;;7.80;96.30;;;8.25;69.95;98249.50;5005428;28;20050;-48
2021/10/18 00:02:42;;;;;;;11.07;7.90;;;7.80;96.10;;;8.19;69.76;98254.53;5005597;28;20048;-47
2021/10/18 00:05:13;;;;;;;12.13;7.30;;;7.70;96.20;;;8.09;69.84;98257.94;5005370;28;20046;-48
2021/10/18 00:07:42;;;;;;;11.77;7.57;;;7.70;96.30;;;8.06;69.95;98260.88;5005767;28;20054;-47
2021/10/18 00:10:13;;;;;;;9.67;6.43;;;7.60;96.20;;;8.05;69.95;98267.13;5006473;28;20072;-46
2021/10/18 00:12:43;;;;;;;10.70;7.17;;;7.60;96.20;;;7.97;69.53;98266.97;5005849;28;20060;-46
2021/10/18 00:15:16;;;;;;;11.43;7.90;;;7.40;96.80;;;7.94;69.62;98264.56;5006630;28;20095;-50
2021/10/18 00:17:44;;;;;;;11.85;7.82;;;7.40;97.20;;;7.94;69.94;98269.03;5004470;28;20100;-48
2021/10/18 00:20:15;;;;;;;10.20;6.87;;;7.40;97.00;;;7.91;69.74;98269.25;5006563;28;20547;-47
2021/10/18 00:22:43;;;;;;;12.57;8.43;;;7.40;97.30;;;7.89;70.25;98266.75;5004900;28;20060;-46
2021/10/18 00:25:12;;;;;;;10.00;6.87;;;7.40;97.30;;;7.87;69.80;98263.38;5006007;28;20060;-46
2021/10/18 00:27:40;;;;;;;10.53;7.00;;;7.40;97.10;;;7.84;70.01;98268.94;5005174;28;20056;-46
2021/10/18 00:30:09;;;;;;;12.13;7.57;;;7.40;97.00;;;7.79;70.10;98269.34;5007270;28;20244;-47
2021/10/18 00:32:37;;;;;;;12.47;7.63;;;7.30;97.10;;;7.72;69.82;98267.34;5006011;28;20352;-47
2021/10/18 00:35:06;;;;;;;12.37;7.77;;;7.20;97.50;;;7.71;69.99;98265.63;5006751;28;20061;-49
2021/10/18 00:37:34;;;;;;;12.10;8.07;;;7.30;97.70;;;7.71;70.41;98269.13;5003712;28;20336;-48
2021/10/18 00:40:05;;;;;;;12.20;7.53;;;7.30;97.80;;;7.71;70.44;98276.25;5005144;28;20054;-46
2021/10/18 00:42:33;;;;;;;10.33;7.10;;;7.30;97.60;;;7.69;70.14;98273.72;5002962;28;20053;-46
2021/10/18 00:45:01;;;;;;;10.27;7.37;;;7.30;97.80;;;7.68;70.36;98278.19;5006317;28;20050;-47
2021/10/18 00:47:29;;;;;;;11.20;7.77;;;7.30;97.50;;;7.69;70.26;98279.00;5005073;28;20072;-48
2021/10/18 00:49:57;;;;;;;10.47;7.33;;;7.30;97.50;;;7.66;69.94;98274.00;5004827;28;20370;-47
2021/10/18 00:52:25;;;;;;;10.23;6.47;;;7.20;97.30;;;7.67;70.70;98283.59;5008239;28;20054;-47
2021/10/18 00:54:54;;;;;;;12.50;7.60;;;7.20;97.70;;;7.72;70.60;98283.25;5008742;28;20060;-47
2021/10/18 00:57:22;;;;;;;11.37;7.87;;;7.40;97.70;;;7.73;70.25;98282.25;5008475;28;20068;-47
2021/10/18 00:59:51;;;;;;;11.00;7.47;;;7.30;97.40;;;7.71;70.25;98281.53;5009570;28;20404;-46
2021/10/18 01:02:20;;;;;;;12.63;7.77;;;7.30;97.50;;;7.69;70.13;98279.84;5010115;28;20058;-46
2021/10/18 01:04:48;;;;;;;21.87;8.70;;;7.30;97.60;;;7.66;70.34;98277.47;5039485;28;20046;-47
2021/10/18 01:07:16;;;;;;;12.27;7.67;;;7.30;97.50;;;7.63;70.19;98269.75;5007792;28;20260;-45
2021/10/18 01:09:44;;;;;;;15.43;8.40;;;7.10;98.20;;;7.58;70.04;98277.28;5009455;28;20408;-49
2021/10/18 01:12:12;;;;;;;13.33;9.30;;;7.10;97.40;;;7.49;70.37;98270.91;5008163;28;20379;-46
2021/10/18 01:14:40;;;;;;;15.20;8.80;;;7.00;98.00;;;7.44;70.50;98273.13;5008126;28;20053;-46
2021/10/18 01:17:08;;;;;;;13.13;8.50;;;6.90;98.50;;;7.40;70.38;98276.94;5007400;28;20050;-47
2021/10/18 01:19:36;;;;;;;11.43;8.20;;;7.00;98.80;;;7.37;70.52;98269.28;5009313;28;20046;-47
2021/10/18 01:22:04;;;;;;;14.67;9.07;;;6.90;98.90;;;7.34;70.29;98266.88;5007938;28;20378;-48
2021/10/18 01:24:35;;;;;;;17.33;8.60;;;6.90;99.10;;;7.33;70.76;98267.00;5009487;28;20362;-47
2021/10/18 01:27:04;;;;;;;15.63;9.67;;;6.80;98.90;;;7.30;70.79;98262.78;5009741;28;20242;-48
2021/10/18 01:29:36;;;;;;;13.63;9.20;;;6.80;99.20;;;7.29;71.18;98261.97;5009486;28;20053;-46
2021/10/18 01:32:06;;;;;;;16.30;9.40;;;6.80;99.60;;;7.33;70.67;98269.63;5008624;28;20368;-46
2021/10/18 01:34:35;;;;;;;12.93;7.53;;;6.90;99.40;;;7.28;70.90;98268.22;5008422;28;20486;-47
2021/10/18 01:37:04;;;;;;;16.07;9.67;;;6.80;99.20;;;7.28;71.17;98273.50;5008761;28;20050;-47
2021/10/18 01:39:33;;;;;;;17.20;8.67;;;6.80;99.80;;;7.28;70.78;98270.03;5007600;28;20058;-47
2021/10/18 01:42:01;;;;;;;16.10;7.87;;;6.90;99.60;;;7.22;70.94;98263.41;5007012;28;20260;-47
2021/10/18 01:44:29;;;;;;;17.30;9.60;;;6.80;99.60;;;7.23;70.62;98261.59;5010067;28;20263;-47
2021/10/18 01:46:56;;;;;;;15.57;8.90;;;6.80;99.90;;;7.23;70.98;98265.13;5007631;28;20050;-47
2021/10/18 01:49:24;;;;;;;15.33;9.13;;;6.80;99.90;;;7.22;71.48;98259.94;5008364;28;20058;-47
2021/10/18 01:51:52;;;;;;;19.20;9.17;;;6.80;99.90;;;7.21;71.00;98258.22;5008992;28;20439;-46
2021/10/18 01:54:20;;;;;;;20.03;10.43;;;6.80;99.90;;;7.23;71.48;98258.94;5008945;28;20245;-49
2021/10/18 01:56:48;;;;;;;15.07;8.80;;;6.80;99.90;;;7.25;71.24;98264.97;5007970;28;20080;-48
2021/10/18 01:59:16;;;;;;;14.80;8.70;;;6.80;99.90;;;7.23;71.67;98262.47;5009339;28;20033;-47
2021/10/18 02:01:44;;;;;;;19.30;9.10;;;6.80;99.90;;;7.21;71.46;98253.81;5006660;28;20064;-49
2021/10/18 02:04:12;;;;;;;21.87;10.83;;;6.80;99.90;;;7.21;71.65;98256.44;5007706;28;20050;-51
2021/10/18 02:06:40;;;;;;;17.07;9.57;;;6.80;99.90;;;7.21;71.24;98258.22;5007418;28;20054;-49
2021/10/18 02:09:08;;;;;;;64.53;12.17;;;6.80;99.90;;;7.21;71.88;98255.59;5006284;28;20058;-48
2021/10/18 02:11:36;;;;;;;22.40;11.30;;;6.80;99.90;;;7.25;71.55;98263.19;5008394;28;20536;-48
2021/10/18 02:14:03;;;;;;;18.50;9.77;;;6.90;99.90;;;7.32;71.82;98257.38;5007706;28;20054;-47
2021/10/18 02:16:32;;;;;;;21.23;9.47;;;7.00;99.90;;;7.35;72.27;98265.06;5009462;28;20357;-48
2021/10/18 02:19:00;;;;;;;20.53;10.30;;;7.10;99.90;;;7.37;71.73;98255.19;5008505;28;20077;-47
2021/10/18 02:21:28;;;;;;;21.10;10.47;;;7.10;99.90;;;7.41;71.97;98246.03;5008655;28;20057;-49
2021/10/18 02:23:56;;;;;;;27.07;10.77;;;7.10;99.90;;;7.43;72.14;98254.69;5006071;28;20272;-49
2021/10/18 02:26:24;;;;;;;59.67;12.67;;;7.10;99.90;;;7.44;72.26;98259.88;5008648;28;20046;-46
2021/10/18 02:28:52;;;;;;;20.90;11.70;;;7.10;99.90;;;7.44;71.99;98256.34;5008326;28;20057;-47
2021/10/18 02:31:21;;;;;;;31.13;12.90;;;7.10;99.90;;;7.45;72.42;98261.53;5008360;28;20056;-47
2021/10/18 02:33:49;;;;;;;29.17;12.27;;;7.10;99.90;;;7.49;72.12;98252.38;5008171;28;20068;-47
2021/10/18 02:36:17;;;;;;;29.93;13.10;;;7.20;99.90;;;7.51;72.37;98260.19;5006896;28;20050;-47
2021/10/18 02:38:45;;;;;;;23.37;11.23;;;7.20;99.90;;;7.55;72.36;98261.63;5007159;28;20065;-50
2021/10/18 02:41:13;;;;;;;34.80;13.67;;;7.20;99.90;;;7.58;72.26;98257.84;5007414;28;20054;-49
2021/10/18 02:43:40;;;;;;;65.87;12.80;;;7.30;99.90;;;7.59;72.06;98251.59;5007440;28;20046;-46
2021/10/18 02:46:08;;;;;;;24.90;11.60;;;7.30;99.90;;;7.55;72.34;98243.06;5008292;28;20056;-47
2021/10/18 02:48:37;;;;;;;33.70;12.87;;;7.30;99.90;;;7.55;72.54;98245.72;5009165;28;20311;-48
2021/10/18 02:51:04;;;;;;;58.73;15.20;;;7.20;99.90;;;7.59;72.53;98248.97;5007442;28;20533;-47
2021/10/18 02:53:32;;;;;;;27.57;12.60;;;7.30;99.90;;;7.60;72.09;98262.09;5006541;28;20591;-48
2021/10/18 02:56:00;;;;;;;37.33;12.60;;;7.30;99.90;;;7.61;72.06;98262.91;5005604;28;20091;-46
2021/10/18 02:58:28;;;;;;;46.10;13.20;;;7.30;99.90;;;7.62;72.29;98256.66;5007135;28;20062;-47
2021/10/18 03:00:56;;;;;;;49.57;13.30;;;7.30;99.90;;;7.62;72.22;98244.25;5006683;28;20057;-47
2021/10/18 03:03:24;;;;;;;40.80;14.77;;;7.30;99.90;;;7.59;72.46;98260.38;5006062;28;20054;-48
2021/10/18 03:05:52;;;;;;;39.37;12.87;;;7.20;99.90;;;7.61;72.45;98265.56;5005966;28;20218;-47
2021/10/18 03:08:20;;;;;;;24.43;12.43;;;7.20;99.90;;;7.59;72.33;98255.09;5006410;28;20046;-46
2021/10/18 03:10:48;;;;;;;24.40;11.50;;;7.20;99.90;;;7.57;72.13;98259.69;5009501;28;20275;-47
2021/10/18 03:13:16;;;;;;;42.40;15.70;;;7.20;99.90;;;7.57;72.57;98269.44;5006713;28;20053;-46
2021/10/18 03:15:44;;;;;;;21.27;12.53;;;7.20;99.90;;;7.59;72.25;98276.28;5005407;28;20048;-47
2021/10/18 03:18:12;;;;;;;25.60;11.60;;;7.30;99.90;;;7.60;72.17;98272.69;5006522;28;20801;-48
2021/10/18 03:20:40;;;;;;;58.57;16.43;;;7.30;99.90;;;7.61;72.72;98274.34;5008279;28;20049;-49
2021/10/18 03:23:08;;;;;;;22.53;11.90;;;7.30;99.90;;;7.62;72.25;98267.25;5005454;28;20076;-47
2021/10/18 03:25:36;;;;;;;71.10;17.23;;;7.30;99.90;;;7.61;72.53;98276.16;5007571;28;20054;-46
2021/10/18 03:28:08;;;;;;;25.97;12.73;;;7.30;99.90;;;7.62;72.37;98278.69;5006109;28;20037;-47
2021/10/18 03:30:36;;;;;;;32.67;13.03;;;7.30;99.90;;;7.66;72.66;98284.59;5008030;28;20065;-48
2021/10/18 03:33:05;;;;;;;38.77;12.63;;;7.40;99.90;;;7.66;72.47;98280.13;5005805;28;20230;-47
2021/10/18 03:35:33;;;;;;;17.00;10.60;;;7.40;99.90;;;7.68;72.85;98282.66;5005555;28;20050;-46
2021/10/18 03:38:00;;;;;;;42.80;13.67;;;7.40;99.90;;;7.71;72.63;98287.69;5006297;28;20060;-48
2021/10/18 03:40:29;;;;;;;28.13;12.37;;;7.40;99.90;;;7.73;72.62;98287.56;5006222;28;20048;-47
2021/10/18 03:42:56;;;;;;;25.07;12.73;;;7.50;99.90;;;7.77;72.69;98296.94;5005100;28;20053;-47
2021/10/18 03:45:24;;;;;;;20.63;11.73;;;7.50;99.90;;;7.75;72.56;98297.06;5006115;28;20045;-48
2021/10/18 03:47:52;;;;;;;33.97;12.13;;;7.50;99.90;;;7.77;72.62;98302.22;5006212;28;20046;-46
2021/10/18 03:50:20;;;;;;;29.33;12.03;;;7.50;99.90;;;7.75;72.65;98293.56;5008921;28;20436;-46
2021/10/18 03:52:48;;;;;;;39.43;13.53;;;7.50;99.90;;;7.72;72.63;98301.78;5006180;28;20060;-48
2021/10/18 03:55:16;;;;;;;21.83;12.47;;;7.40;99.90;;;7.72;72.55;98305.28;5004629;28;20066;-46
2021/10/18 03:57:44;;;;;;;20.30;11.90;;;7.40;99.90;;;7.74;72.56;98308.63;5006793;28;20050;-47
2021/10/18 04:00:12;;;;;;;24.50;12.97;;;7.50;99.90;;;7.77;72.67;98310.19;5005030;28;20041;-47
2021/10/18 04:02:42;;;;;;;23.13;14.10;;;7.50;99.90;;;7.81;72.81;98312.47;5007279;28;20084;-47
2021/10/18 04:05:10;;;;;;;22.67;12.17;;;7.60;99.90;;;7.86;72.71;98318.22;5006369;28;20046;-47
2021/10/18 04:07:40;;;;;;;28.03;14.33;;;7.60;99.90;;;7.89;72.66;98317.97;5004794;28;20348;-48
2021/10/18 04:10:09;;;;;;;27.60;14.87;;;7.70;99.90;;;7.91;72.78;98327.59;5008664;28;20252;-47
2021/10/18 04:12:37;;;;;;;47.20;15.77;;;7.70;99.90;;;7.94;73.00;98328.19;5006045;28;20053;-48
2021/10/18 04:15:06;;;;;;;27.87;14.77;;;7.70;99.90;;;7.96;73.04;98318.28;5006490;28;20057;-48
2021/10/18 04:17:34;;;;;;;28.93;14.97;;;7.80;99.90;;;7.98;72.86;98318.16;5005300;28;20049;-49
2021/10/18 04:20:04;;;;;;;27.43;14.73;;;7.80;99.90;;;7.99;72.78;98317.22;5006319;28;20064;-51
2021/10/18 04:22:33;;;;;;;29.00;15.67;;;7.80;99.90;;;8.01;72.90;98312.63;5005314;28;20054;-47
2021/10/18 04:25:02;;;;;;;32.03;14.47;;;7.80;99.90;;;8.03;72.71;98321.28;5004704;28;20057;-47
2021/10/18 04:27:29;;;;;;;30.53;15.00;;;7.80;99.90;;;8.03;72.80;98323.94;5005348;28;20060;-47
2021/10/18 04:29:57;;;;;;;26.83;14.13;;;7.80;99.90;;;8.05;72.91;98337.91;5007209;28;20079;-48
2021/10/18 04:32:25;;;;;;;29.13;15.53;;;7.90;99.90;;;8.07;73.05;98336.81;5006413;28;20049;-49
2021/10/18 04:34:53;;;;;;;30.73;15.03;;;7.90;99.90;;;8.06;72.94;98336.91;5005229;28;20253;-50
2021/10/18 04:37:21;;;;;;;30.03;15.40;;;7.80;99.90;;;8.06;72.50;98337.78;5005765;28;20075;-49
2021/10/18 04:39:49;;;;;;;34.63;16.60;;;7.80;99.90;;;8.02;72.91;98346.94;5005738;28;20077;-47
2021/10/18 04:42:17;;;;;;;32.23;15.90;;;7.70;99.90;;;7.99;72.96;98341.91;5006089;28;20076;-48
2021/10/18 04:44:45;;;;;;;29.83;14.40;;;7.70;99.90;;;7.99;73.01;98351.69;5005299;28;20050;-49
2021/10/18 04:47:13;;;;;;;30.53;14.80;;;7.70;99.90;;;7.99;72.90;98349.88;5005340;28;20053;-48
2021/10/18 04:49:41;;;;;;;29.03;14.43;;;7.70;99.90;;;8.01;72.97;98349.75;5005155;28;20058;-50
2021/10/18 04:52:08;;;;;;;30.63;15.30;;;7.80;99.90;;;8.03;72.76;98345.16;5004445;28;20379;-47
2021/10/18 04:54:36;;;;;;;29.33;15.40;;;7.80;99.90;;;8.05;73.15;98348.50;5037531;28;20371;-48
2021/10/18 04:57:04;;;;;;;32.97;14.60;;;7.80;99.90;;;8.06;72.99;98348.41;5004996;28;20089;-47
2021/10/18 04:59:32;;;;;;;36.13;18.20;;;7.80;99.90;;;8.07;72.88;98355.34;5005065;28;20153;-48
2021/10/18 05:02:00;;;;;;;34.53;14.23;;;7.80;99.90;;;8.07;72.70;98365.97;5005426;28;20058;-48
2021/10/18 05:04:28;;;;;;;29.13;14.47;;;7.90;99.90;;;8.09;72.87;98365.84;5005661;28;20054;-48
2021/10/18 05:06:56;;;;;;;33.33;15.23;;;7.90;99.90;;;8.12;73.10;98370.03;5005535;28;20042;-47
2021/10/18 05:09:24;;;;;;;29.00;13.37;;;7.90;99.90;;;8.08;72.85;98369.47;5004967;28;20056;-48
2021/10/18 05:11:52;;;;;;;28.37;13.30;;;7.80;99.90;;;8.05;72.68;98378.53;5006539;28;20073;-48
2021/10/18 05:14:20;;;;;;;41.13;15.90;;;7.80;99.90;;;8.06;72.98;98376.69;5004250;28;20038;-48
2021/10/18 05:16:48;;;;;;;29.93;13.20;;;7.80;99.90;;;8.06;72.71;98374.91;5004213;28;20045;-48
2021/10/18 05:19:16;;;;;;;25.57;12.63;;;7.80;99.90;;;8.04;72.95;98366.22;5006834;28;20248;-47
2021/10/18 05:21:44;;;;;;;32.43;14.53;;;7.70;99.90;;;8.04;72.77;98366.22;5005169;28;20050;-51
2021/10/18 05:24:12;;;;;;;29.37;13.33;;;7.70;99.90;;;8.03;72.84;98353.94;5003866;28;20042;-49
2021/10/18 05:26:40;;;;;;;30.77;13.30;;;7.70;99.90;;;8.01;72.90;98357.69;5005913;28;20045;-48
2021/10/18 05:29:09;;;;;;;29.80;14.47;;;7.70;99.90;;;8.01;72.92;98357.69;5005084;28;20376;-52
2021/10/18 05:31:36;;;;;;;27.37;14.67;;;7.70;99.90;;;8.01;72.82;98358.53;5005520;28;20465;-48
2021/10/18 05:34:04;;;;;;;23.90;12.87;;;7.70;99.90;;;8.03;72.63;98361.06;5038364;28;20259;-48
2021/10/18 05:36:32;;;;;;;29.00;13.83;;;7.80;99.90;;;8.02;72.81;98365.50;5004530;28;20379;-48
2021/10/18 05:39:00;;;;;;;35.00;14.37;;;7.70;99.90;;;8.03;72.79;98376.97;5007158;28;20225;-47
2021/10/18 05:41:28;;;;;;;28.57;14.60;;;7.80;99.90;;;8.05;72.69;98378.53;5008701;28;20246;-49
2021/10/18 05:43:56;;;;;;;25.87;12.40;;;7.80;99.90;;;8.05;72.79;98380.34;5009518;28;20052;-49
2021/10/18 05:46:24;;;;;;;31.23;15.13;;;7.80;99.90;;;8.05;72.95;98389.13;5007948;28;20046;-50
2021/10/18 05:48:52;;;;;;;29.07;14.97;;;7.80;99.90;;;8.11;72.72;98392.25;5007514;28;20248;-45
2021/10/18 05:51:20;;;;;;;25.67;14.23;;;7.90;99.90;;;8.12;72.85;98380.66;5009519;28;20054;-45
2021/10/18 05:53:48;;;;;;;32.00;15.27;;;7.90;99.90;;;8.15;72.72;98393.66;5006942;28;20038;-47
2021/10/18 05:56:16;;;;;;;30.93;15.13;;;8.00;99.90;;;8.16;72.79;98398.00;5007021;28;20056;-45
2021/10/18 05:58:44;;;;;;;28.70;15.47;;;8.00;99.90;;;8.19;72.60;98392.44;5009159;28;20064;-47
2021/10/18 06:01:11;;;;;;;30.20;15.10;;;8.00;99.90;;;8.20;72.54;98394.13;5008681;28;20056;-46
2021/10/18 06:03:41;;;;;;;30.50;14.83;;;8.00;99.90;;;8.20;72.68;98383.50;5007201;28;20060;-45
2021/10/18 06:06:11;;;;;;;33.00;16.13;;;8.00;99.90;;;8.19;72.52;98387.97;5008367;28;20080;-53
2021/10/18 06:08:51;;;;;;;27.07;13.43;;;8.00;99.90;;;8.20;72.61;98392.31;5006484;28;20054;-49
2021/10/18 06:11:19;;;;;;;30.93;13.63;;;8.00;99.90;;;8.21;72.64;98396.66;5008305;28;20056;-46
2021/10/18 06:13:47;;;;;;;29.70;15.50;;;8.00;99.90;;;8.25;72.62;98407.84;5008636;28;20072;-47
2021/10/18 06:16:15;;;;;;;33.57;17.23;;;8.00;99.90;;;8.22;72.70;98397.47;5007334;28;20410;-49
2021/10/18 06:18:43;;;;;;;27.57;14.30;;;8.00;99.90;;;8.22;72.63;98408.94;5007733;28;20247;-47
2021/10/18 06:21:11;;;;;;;25.73;14.33;;;8.00;99.90;;;8.21;72.50;98411.72;5008263;28;20060;-46
2021/10/18 06:23:39;;;;;;;33.53;16.30;;;7.90;99.90;;;8.21;72.56;98411.72;5007598;28;20307;-48
2021/10/18 06:26:06;;;;;;;28.50;15.50;;;8.00;99.90;;;8.22;72.80;98410.75;5008390;28;20058;-49
2021/10/18 06:28:34;;;;;;;29.97;15.97;;;8.00;99.90;;;8.21;72.61;98409.91;5007749;28;20511;-51
2021/10/18 06:31:02;;;;;;;26.47;15.07;;;8.00;99.90;;;8.21;72.63;98419.69;5007670;28;20277;-48
2021/10/18 06:33:30;;;;;;;26.70;14.73;;;7.90;99.90;;;8.20;72.68;98421.50;5007138;28;20072;-47
2021/10/18 06:35:58;;;;;;;27.20;15.40;;;7.90;99.90;;;8.19;72.47;98425.09;5007383;28;20058;-50
2021/10/18 06:38:26;;;;;;;33.90;15.80;;;7.90;99.90;;;8.16;72.46;98421.88;5006761;28;20253;-47
2021/10/18 06:40:57;;;;;;;29.07;15.97;;;7.80;99.90;;;8.15;72.58;98430.81;5007268;28;20236;-48
2021/10/18 06:43:25;;;;;;;31.77;17.30;;;7.80;99.90;;;8.15;72.66;98434.28;5003691;28;20045;-48
2021/10/18 06:45:53;;;;;;;30.83;16.17;;;7.90;99.90;;;8.15;72.67;98431.63;5006043;28;20054;-51
2021/10/18 06:48:21;;;;;;;33.67;18.23;;;7.80;99.90;;;8.17;72.85;98435.00;5007877;28;20054;-47
2021/10/18 06:50:50;;;;;;;31.17;16.90;;;7.90;99.90;;;8.20;72.72;98436.56;5007272;28;20083;-48
2021/10/18 06:53:20;;;;;;;30.00;16.23;;;7.90;99.90;;;8.22;72.85;98434.63;5007316;28;20060;-47
2021/10/18 06:55:49;;;;;;;31.93;15.67;;;8.00;99.90;;;8.24;72.89;98444.16;5007574;28;20057;-46
2021/10/18 06:58:19;;;;;;;26.33;13.87;;;8.00;99.90;;;8.27;72.93;98449.19;5009161;28;20248;-47
2021/10/18 07:00:50;;;;;;;29.10;15.57;;;8.10;99.90;;;8.31;72.94;98449.78;5007919;28;20072;-47
2021/10/18 07:03:18;;;;;;;33.07;16.00;;;8.10;99.90;;;8.37;72.96;98451.06;5007504;28;20056;-47
2021/10/18 07:05:46;;;;;;;28.87;16.00;;;8.20;99.90;;;8.38;72.95;98452.78;5007405;28;20065;-46
2021/10/18 07:08:16;;;;;;;29.60;15.87;;;8.10;99.90;;;8.38;72.67;98445.66;5007430;28;20356;-46
2021/10/18 07:10:44;;;;;;;31.10;16.00;;;8.10;99.90;;;8.41;72.76;98448.09;5038708;28;20065;-49
2021/10/18 07:13:13;;;;;;;29.37;16.03;;;8.20;99.90;;;8.45;72.71;98459.28;5007259;28;20057;-46
2021/10/18 07:15:41;;;;;;;33.67;17.47;;;8.30;99.90;;;8.48;72.76;98456.38;5006488;28;20075;-46
2021/10/18 07:18:09;;;;;;;28.90;15.30;;;8.30;99.90;;;8.51;72.72;98448.16;5006305;28;20257;-49
2021/10/18 07:20:38;;;;;;;32.33;16.90;;;8.30;99.90;;;8.53;72.64;98455.97;5008077;28;20053;-47
2021/10/18 07:23:09;;;;;;;32.13;17.87;;;8.30;99.90;;;8.55;72.65;98454.91;5006992;28;20060;-47
2021/10/18 07:25:40;;;;;;;29.40;16.90;;;8.40;99.90;;;8.58;72.79;98448.47;5006769;28;20056;-52
2021/10/18 07:28:09;;;;;;;34.33;17.03;;;8.40;99.90;;;8.62;72.90;98453.38;5036953;28;20067;-47
2021/10/18 07:30:38;;;;;;;34.10;16.53;;;8.50;99.90;;;8.64;72.59;98453.28;5037874;28;20060;-49
2021/10/18 07:33:06;;;;;;;29.67;15.43;;;8.50;99.90;;;8.66;72.71;98460.13;5007621;28;20053;-49
2021/10/18 07:35:35;;;;;;;32.37;16.03;;;8.50;99.90;;;8.69;72.70;98464.34;5009061;28;20038;-48
2021/10/18 07:38:05;;;;;;;30.63;17.37;;;8.50;99.80;;;8.71;72.70;98469.53;5008369;28;20061;-47
2021/10/18 07:40:33;;;;;;;29.97;16.60;;;8.50;99.60;;;8.69;72.47;98464.34;5007083;28;20096;-48
2021/10/18 07:43:01;;;;;;;29.70;16.10;;;8.50;99.50;;;8.72;72.67;98471.22;5005334;28;20252;-47
2021/10/18 07:45:30;;;;;;;27.40;15.27;;;8.50;99.70;;;8.75;72.64;98465.66;5007164;28;20230;-48
2021/10/18 07:47:58;;;;;;;27.50;15.97;;;8.60;99.80;;;8.80;72.57;98474.91;5006432;28;20050;-49
2021/10/18 07:50:27;;;;;;;29.43;14.97;;;8.70;99.90;;;8.83;72.51;98471.16;5013052;28;20054;-49
2021/10/18 07:52:58;;;;;;;28.60;15.47;;;8.70;99.60;;;8.89;72.38;98478.59;5018137;28;20052;-50
2021/10/18 07:55:29;;;;;;;29.40;15.97;;;8.80;99.30;;;8.90;72.34;98474.97;5020236;28;20240;-47
2021/10/18 07:57:57;;;;;;;27.10;15.80;;;8.80;99.20;;;8.92;72.26;98483.66;5019288;28;20042;-50
2021/10/18 08:00:25;;;;;;;28.47;14.60;;;8.80;99.00;;;8.93;72.42;98487.97;5019548;28;20274;-49
2021/10/18 08:02:53;;;;;;;26.30;14.70;;;8.80;99.10;;;8.94;72.41;98487.00;5027910;28;20045;-49
2021/10/18 08:05:23;;;;;;;26.07;15.80;;;8.80;98.60;;;8.95;72.25;98483.38;5026891;28;20053;-49
2021/10/18 08:07:52;;;;;;;26.03;13.20;;;8.80;98.70;;;8.97;72.25;98489.38;5025620;28;20060;-49
2021/10/18 08:10:24;;;;;;;24.23;13.40;;;8.80;98.60;;;8.99;72.23;98492.75;5030487;28;20038;-47
2021/10/18 08:12:58;;;;;;;25.97;14.73;;;8.80;99.10;;;9.04;72.12;98485.25;5024053;28;20354;-51
2021/10/18 08:15:30;;;;;;;24.97;14.50;;;8.90;98.90;;;9.09;72.41;98487.50;5020288;28;20497;-49
2021/10/18 08:17:58;;;;;;;26.00;13.87;;;9.00;98.80;;;9.13;72.42;98488.94;5028593;28;20100;-50
2021/10/18 08:20:26;;;;;;;22.77;12.73;;;9.00;98.90;;;9.17;72.24;98490.38;5020986;28;20052;-49
2021/10/18 08:22:56;;;;;;;25.47;14.47;;;9.10;98.70;;;9.19;72.30;98483.09;5021373;28;20276;-47
2021/10/18 08:25:24;;;;;;;23.60;13.80;;;9.10;98.70;;;9.22;72.46;98476.69;4979649;28;100078;-49
2021/10/18 08:27:52;;;;;;;24.17;15.07;;;9.20;98.40;;;9.27;72.05;98479.78;4982434;28;20045;-49
2021/10/18 08:30:20;;;;;;;25.40;13.47;;;9.20;98.20;;;9.30;72.05;98487.47;4981798;28;20053;-51
2021/10/18 08:32:48;;;;;;;27.63;14.80;;;9.20;98.30;;;9.33;72.12;98483.72;4980536;28;20371;-47
2021/10/18 08:35:16;;;;;;;22.93;13.27;;;9.20;98.20;;;9.38;71.94;98490.34;4981155;28;20050;-47
2021/10/18 08:40:33;;;;;;;21.97;13.90;;;9.40;98.20;;;9.46;72.18;98489.69;4981396;28;20093;-46
2021/10/18 08:43:07;;;;;;;21.03;12.67;;;9.40;98.00;;;9.51;71.98;98495.41;4982369;28;20047;-50
2021/10/18 08:45:40;;;;;;;29.40;14.27;;;9.50;98.30;;;9.55;71.87;98498.66;4982234;28;20057;-48
2021/10/18 08:48:09;;;;;;;23.97;13.63;;;9.50;98.00;;;9.59;71.85;98497.41;4981702;28;20055;-50
2021/10/18 08:50:38;;;;;;;26.23;14.50;;;9.50;98.10;;;9.61;71.77;98498.94;4979575;28;20051;-48
2021/10/18 08:53:06;;;;;;;23.57;13.67;;;9.50;97.80;;;9.63;71.66;98498.81;4976851;28;20057;-48
2021/10/18 08:55:39;;;;;;;23.40;13.87;;;9.50;97.60;;;9.66;71.72;98502.03;4976606;28;20058;-49
2021/10/18 08:58:08;;;;;;;22.03;13.10;;;9.60;97.80;;;9.71;71.75;98501.63;4981145;28;20047;-47
2021/10/18 09:00:51;;;;;;;25.10;13.77;;;9.60;97.60;;;9.76;71.89;98504.75;4980792;28;20062;-49
2021/10/18 09:03:32;;;;;;;25.83;13.37;;;9.70;97.30;;;9.79;71.59;98509.81;4976757;28;20081;-48
2021/10/18 09:06:11;;;;;;;23.77;13.57;;;9.80;97.20;;;9.81;71.70;98499.88;4979898;28;20046;-50
2021/10/18 09:08:49;;;;;;;22.50;13.47;;;9.80;97.00;;;9.87;71.76;98495.81;4980093;28;20244;-50
2021/10/18 09:11:29;;;;;;;23.50;13.17;;;9.80;97.20;;;9.93;71.53;98489.97;4979614;28;20061;-47
2021/10/18 09:14:01;;;;;;;22.63;14.10;;;9.90;97.30;;;9.99;71.85;98488.56;4981952;28;20092;-51
2021/10/18 09:16:43;;;;;;;23.00;12.50;;;10.00;97.00;;;10.02;71.38;98498.91;4976700;28;20061;-50
2021/10/18 09:19:22;;;;;;;26.60;14.97;;;10.00;96.80;;;10.06;71.18;98489.69;4974265;28;20059;-47
2021/10/18 09:22:06;;;;;;;24.03;14.60;;;10.10;96.90;;;10.11;71.57;98495.44;4972186;28;20234;-47
2021/10/18 09:24:34;;;;;;;21.48;13.13;;;10.10;96.60;;;10.15;71.02;98499.50;4969230;28;20395;-47
2021/10/18 09:27:28;;;;;;;20.57;13.80;;;10.10;96.20;;;10.15;70.75;98491.53;4969749;28;20053;-49
2021/10/18 09:29:56;;;;;;;;;;;10.20;95.30;;;10.15;70.82;98498.69;4969006;28;20249;-47
2021/10/18 09:32:30;;;;;;;18.97;12.53;;;10.10;94.50;;;10.21;70.97;98496.28;4969610;28;19940;-47
2021/10/18 09:35:10;;;;;;;;;;;10.20;95.70;;;10.22;71.01;98491.84;4969335;28;20073;-47
2021/10/18 09:37:40;;;;;;;19.63;12.10;;;10.20;94.40;;;10.30;71.25;98488.47;4969367;28;20215;-47
2021/10/18 09:40:28;;;;;;;22.90;12.75;;;10.20;96.00;;;10.33;70.91;98485.56;4971300;28;20240;-49
2021/10/18 09:43:24;;;;;;;20.83;12.47;;;10.30;95.90;;;10.37;70.83;98486.94;4969509;28;20065;-49
2021/10/18 10:51:45;;;;;;;18.13;11.60;;;11.30;92.70;;;11.35;68.87;98487.69;4968898;28;20361;-49
2021/10/18 10:54:39;;;;;;;17.88;11.25;;;11.40;92.20;;;11.40;69.04;98488.09;4967180;28;20054;-50
2021/10/18 10:57:12;;;;;;;19.15;11.40;;;11.40;90.50;;;11.42;68.73;98488.78;4966702;28;20062;-48
2021/10/18 10:59:53;;;;;;;19.25;12.18;;;11.40;91.80;;;11.41;68.71;98484.41;4967234;28;20059;-48
2021/10/18 11:02:31;;;;;;;20.65;11.27;;;11.50;91.20;;;11.47;68.68;98485.66;4967298;28;20441;-48
2021/10/18 11:04:59;;;;;;;22.70;12.55;;;11.50;91.50;;;11.50;68.28;98485.38;4967461;28;20050;-49
2021/10/18 11:07:33;;;;;;;22.42;12.93;;;11.50;91.60;;;11.49;67.88;98478.34;4967479;28;20050;-50
2021/10/18 11:10:03;;;;;;;;;;;11.50;91.10;;;11.45;68.51;98466.31;4968434;28;20085;-51
2021/10/18 11:12:35;;;;;;;18.00;11.70;;;11.50;89.00;;;11.47;67.82;98477.66;4967511;28;19918;-48
2021/10/18 11:15:17;;;;;;;20.08;13.02;;;11.40;90.80;;;11.47;68.14;98469.66;4968293;28;20058;-48
2021/10/18 11:17:47;;;;;;;18.95;12.43;;;11.40;91.10;;;11.47;68.18;98470.50;4967477;28;20062;-47
2021/10/18 11:20:19;;;;;;;19.25;12.32;;;11.40;91.50;;;11.51;68.05;98461.22;4965869;28;20073;-51
2021/10/18 11:22:51;;;;;;;23.48;14.13;;;11.50;91.60;;;11.51;68.01;98460.38;4966447;28;20063;-48
2021/10/18 11:25:25;;;;;;;19.50;11.73;;;11.60;91.40;;;11.56;67.88;98468.78;4966328;28;20244;-47
2021/10/18 11:28:05;;;;;;;22.02;13.65;;;11.60;91.40;;;11.59;68.02;98476.47;4966651;28;20053;-50
2021/10/18 11:30:36;;;;;;;17.55;11.90;;;11.70;90.90;;;11.59;67.33;98479.16;4967691;28;20363;-47
2021/10/18 11:33:11;;;;;;;21.65;13.50;;;11.70;91.20;;;11.62;67.77;98473.53;4968215;28;20059;-48
2021/10/18 11:35:42;;;;;;;18.50;12.77;;;11.60;91.20;;;11.66;67.91;98466.91;4965151;28;20061;-48
2021/10/18 11:38:15;;;;;;;20.92;12.50;;;11.70;91.30;;;11.70;67.45;98462.13;4966638;28;20050;-53